createdAt,value
2019-03-15T00:00:24.124Z,39
2019-03-15T00:00:50.216Z,39
2019-03-15T00:01:16.384Z,39
2019-03-15T00:01:42.134Z,39
2019-03-15T00:02:08.431Z,39
2019-03-15T00:02:34.127Z,39
2019-03-15T00:03:00.117Z,39
2019-03-15T00:03:26.121Z,39
2019-03-15T00:03:52.130Z,39
2019-03-15T00:04:18.205Z,39
2019-03-15T00:04:44.124Z,39
2019-03-15T00:05:10.141Z,39
2019-03-15T00:05:36.120Z,39
2019-03-15T00:06:02.138Z,39
2019-03-15T00:06:28.123Z,39
2019-03-15T00:06:54.131Z,39
2019-03-15T00:07:20.208Z,39
2019-03-15T00:07:46.138Z,39
2019-03-15T00:08:12.142Z,39
2019-03-15T00:08:38.148Z,39
2019-03-15T00:09:04.128Z,39
2019-03-15T00:09:30.142Z,39
2019-03-15T00:09:56.148Z,39
2019-03-15T00:10:22.146Z,39
2019-03-15T00:10:48.132Z,39
2019-03-15T00:11:14.132Z,39
2019-03-15T00:11:40.138Z,39
2019-03-15T00:12:06.408Z,39
2019-03-15T00:12:32.209Z,39
2019-03-15T00:12:58.149Z,39
2019-03-15T00:13:24.135Z,39
2019-03-15T00:13:50.139Z,39
2019-03-15T00:14:16.136Z,39
2019-03-15T00:14:42.149Z,39
2019-03-15T00:15:08.217Z,39
2019-03-15T00:15:34.136Z,39
2019-03-15T00:16:00.149Z,39
2019-03-15T00:16:26.139Z,39
2019-03-15T00:16:52.155Z,39
2019-03-15T00:17:18.135Z,39
2019-03-15T00:17:44.140Z,39
2019-03-15T00:18:10.169Z,39
2019-03-15T00:18:36.224Z,39
2019-03-15T00:19:02.638Z,39
2019-03-15T00:19:28.162Z,39
2019-03-15T00:19:54.141Z,39
2019-03-15T00:20:20.161Z,39
2019-03-15T00:20:46.144Z,39
2019-03-15T00:21:12.153Z,39
2019-03-15T00:21:38.160Z,39
2019-03-15T00:22:04.214Z,39
2019-03-15T00:22:30.161Z,39
2019-03-15T00:22:56.162Z,39
2019-03-15T00:23:22.161Z,39
2019-03-15T00:23:48.148Z,39
2019-03-15T00:24:14.149Z,39
2019-03-15T00:24:40.166Z,39
2019-03-15T00:25:06.168Z,39
2019-03-15T00:25:32.274Z,39
2019-03-15T00:25:58.167Z,39
2019-03-15T00:26:24.150Z,39
2019-03-15T00:26:50.154Z,39
2019-03-15T00:27:16.156Z,39
2019-03-15T00:27:42.190Z,39
2019-03-15T00:28:08.239Z,39
2019-03-15T00:28:34.155Z,39
2019-03-15T00:29:00.178Z,40
2019-03-15T00:29:26.156Z,39
2019-03-15T00:29:52.172Z,39
2019-03-15T00:30:18.282Z,39
2019-03-15T00:30:44.158Z,39
2019-03-15T00:31:10.169Z,39
2019-03-15T00:31:36.239Z,39
2019-03-15T00:32:02.175Z,39
2019-03-15T00:32:28.174Z,40
2019-03-15T00:32:54.163Z,40
2019-03-15T00:33:20.176Z,39
2019-03-15T00:33:46.165Z,39
2019-03-15T00:34:12.177Z,40
2019-03-15T00:34:38.169Z,40
2019-03-15T00:35:04.245Z,40
2019-03-15T00:35:30.180Z,40
2019-03-15T00:35:56.182Z,39
2019-03-15T00:36:22.182Z,40
2019-03-15T00:36:48.168Z,40
2019-03-15T00:37:14.166Z,40
2019-03-15T00:37:40.169Z,40
2019-03-15T00:38:06.170Z,40
2019-03-15T00:38:32.202Z,40
2019-03-15T00:38:58.249Z,40
2019-03-15T00:39:24.167Z,40
2019-03-15T00:39:50.186Z,40
2019-03-15T00:40:16.187Z,40
2019-03-15T00:40:42.187Z,40
2019-03-15T00:41:08.191Z,40
2019-03-15T00:41:34.174Z,40
2019-03-15T00:42:00.628Z,40
2019-03-15T00:42:26.248Z,40
2019-03-15T00:42:52.187Z,40
2019-03-15T00:43:18.190Z,40
2019-03-15T00:43:44.172Z,40
2019-03-15T00:44:10.190Z,40
2019-03-15T00:44:36.174Z,40
2019-03-15T00:45:02.190Z,40
2019-03-15T00:45:28.178Z,40
2019-03-15T00:45:54.184Z,40
2019-03-15T00:46:20.193Z,40
2019-03-15T00:46:46.193Z,40
2019-03-15T00:47:12.193Z,40
2019-03-15T00:47:38.182Z,40
2019-03-15T00:48:04.257Z,40
2019-03-15T00:48:30.179Z,40
2019-03-15T00:48:56.180Z,40
2019-03-15T00:49:22.191Z,40
2019-03-15T00:49:48.199Z,40
2019-03-15T00:50:14.255Z,40
2019-03-15T00:50:40.243Z,40
2019-03-15T00:51:06.202Z,40
2019-03-15T00:51:32.203Z,40
2019-03-15T00:51:58.192Z,40
2019-03-15T00:52:24.192Z,41
2019-03-15T00:52:50.216Z,40
2019-03-15T00:53:16.200Z,40
2019-03-15T00:53:42.270Z,40
2019-03-15T00:54:08.208Z,40
2019-03-15T00:54:34.196Z,40
2019-03-15T00:55:00.207Z,40
2019-03-15T00:55:26.195Z,40
2019-03-15T00:55:52.202Z,40
2019-03-15T00:56:18.212Z,40
2019-03-15T00:56:44.263Z,40
2019-03-15T00:57:10.214Z,40
2019-03-15T00:57:36.200Z,40
2019-03-15T00:58:02.212Z,40
2019-03-15T00:58:28.199Z,40
2019-03-15T00:58:54.200Z,40
2019-03-15T00:59:20.212Z,40
2019-03-15T00:59:46.287Z,41
2019-03-15T01:00:12.258Z,41
2019-03-15T01:00:38.434Z,41
2019-03-15T01:01:04.204Z,41
2019-03-15T01:01:30.202Z,41
2019-03-15T01:01:56.277Z,41
2019-03-15T01:02:22.238Z,41
2019-03-15T01:02:48.213Z,41
2019-03-15T01:03:14.282Z,41
2019-03-15T01:03:40.221Z,41
2019-03-15T01:04:06.708Z,41
2019-03-15T01:04:32.515Z,41
2019-03-15T01:04:58.205Z,41
2019-03-15T01:05:24.275Z,41
2019-03-15T01:05:50.612Z,41
2019-03-15T01:06:16.226Z,41
2019-03-15T01:06:42.225Z,41
2019-03-15T01:07:08.280Z,41
2019-03-15T01:07:34.210Z,41
2019-03-15T01:08:00.210Z,41
2019-03-15T01:08:26.215Z,41
2019-03-15T01:08:52.228Z,41
2019-03-15T01:09:18.238Z,41
2019-03-15T01:09:44.375Z,40
2019-03-15T01:10:10.237Z,39
2019-03-15T01:10:36.221Z,38
2019-03-15T01:11:02.235Z,37
2019-03-15T01:11:28.219Z,37
2019-03-15T01:11:54.223Z,37
2019-03-15T01:12:20.224Z,37
2019-03-15T01:12:46.233Z,37
2019-03-15T01:13:12.300Z,37
2019-03-15T01:13:38.236Z,37
2019-03-15T01:14:04.220Z,37
2019-03-15T01:14:30.235Z,37
2019-03-15T01:14:56.222Z,38
2019-03-15T01:15:22.241Z,38
2019-03-15T01:15:48.222Z,38
2019-03-15T01:16:14.250Z,38
2019-03-15T01:16:40.240Z,39
2019-03-15T01:17:06.241Z,39
2019-03-15T01:17:32.236Z,39
2019-03-15T01:17:58.224Z,39
2019-03-15T01:18:24.230Z,39
2019-03-15T01:18:50.228Z,39
2019-03-15T01:19:16.230Z,39
2019-03-15T01:19:42.258Z,40
2019-03-15T01:20:08.320Z,40
2019-03-15T01:20:34.229Z,40
2019-03-15T01:21:00.246Z,40
2019-03-15T01:21:26.234Z,40
2019-03-15T01:21:52.247Z,40
2019-03-15T01:22:18.309Z,40
2019-03-15T01:22:44.267Z,40
2019-03-15T01:23:10.291Z,40
2019-03-15T01:23:36.255Z,40
2019-03-15T01:24:02.272Z,40
2019-03-15T01:24:28.310Z,40
2019-03-15T01:24:54.364Z,40
2019-03-15T01:25:20.352Z,40
2019-03-15T01:25:46.285Z,41
2019-03-15T01:26:12.250Z,41
2019-03-15T01:26:38.325Z,41
2019-03-15T01:27:04.796Z,40
2019-03-15T01:27:30.255Z,41
2019-03-15T01:27:56.245Z,41
2019-03-15T01:28:22.255Z,41
2019-03-15T01:28:48.247Z,41
2019-03-15T01:29:14.257Z,41
2019-03-15T01:29:40.247Z,41
2019-03-15T01:30:06.260Z,42
2019-03-15T01:30:32.340Z,42
2019-03-15T01:30:58.258Z,42
2019-03-15T01:31:24.244Z,42
2019-03-15T01:31:50.262Z,42
2019-03-15T01:32:16.244Z,42
2019-03-15T01:32:42.261Z,42
2019-03-15T01:33:08.253Z,43
2019-03-15T01:33:34.246Z,42
2019-03-15T01:34:00.264Z,42
2019-03-15T01:34:26.253Z,42
2019-03-15T01:34:52.262Z,42
2019-03-15T01:35:18.252Z,42
2019-03-15T01:35:44.254Z,42
2019-03-15T01:36:10.282Z,42
2019-03-15T01:36:36.334Z,42
2019-03-15T01:37:02.304Z,42
2019-03-15T01:37:28.266Z,43
2019-03-15T01:37:54.259Z,43
2019-03-15T01:38:20.269Z,43
2019-03-15T01:38:46.262Z,43
2019-03-15T01:39:12.275Z,43
2019-03-15T01:39:38.253Z,42
2019-03-15T01:40:04.260Z,43
2019-03-15T01:40:30.642Z,43
2019-03-15T01:40:56.277Z,43
2019-03-15T01:41:22.274Z,43
2019-03-15T01:41:48.272Z,43
2019-03-15T01:42:14.263Z,43
2019-03-15T01:42:40.259Z,43
2019-03-15T01:43:06.262Z,43
2019-03-15T01:43:32.271Z,43
2019-03-15T01:43:58.280Z,43
2019-03-15T01:44:24.334Z,42
2019-03-15T01:44:50.284Z,42
2019-03-15T01:45:16.282Z,42
2019-03-15T01:45:42.279Z,42
2019-03-15T01:46:08.276Z,42
2019-03-15T01:46:34.266Z,42
2019-03-15T01:47:00.270Z,42
2019-03-15T01:47:26.267Z,42
2019-03-15T01:47:52.281Z,42
2019-03-15T01:48:18.290Z,41
2019-03-15T01:48:44.269Z,41
2019-03-15T01:49:10.285Z,41
2019-03-15T01:49:36.271Z,41
2019-03-15T01:50:02.287Z,41
2019-03-15T01:50:28.268Z,41
2019-03-15T01:50:54.282Z,41
2019-03-15T01:51:20.285Z,40
2019-03-15T01:51:46.343Z,41
2019-03-15T01:52:12.285Z,40
2019-03-15T01:52:38.290Z,40
2019-03-15T01:53:04.280Z,40
2019-03-15T01:53:30.288Z,40
2019-03-15T01:53:56.273Z,40
2019-03-15T01:54:22.286Z,40
2019-03-15T01:54:48.357Z,40
2019-03-15T01:55:14.348Z,40
2019-03-15T01:55:40.290Z,40
2019-03-15T01:56:06.294Z,40
2019-03-15T01:56:32.294Z,40
2019-03-15T01:56:58.280Z,40
2019-03-15T01:57:24.280Z,40
2019-03-15T01:57:50.288Z,40
2019-03-15T01:58:16.284Z,40
2019-03-15T01:58:42.298Z,40
2019-03-15T01:59:08.301Z,41
2019-03-15T01:59:34.289Z,40
2019-03-15T02:00:00.298Z,40
2019-03-15T02:00:26.285Z,40
2019-03-15T02:00:52.298Z,40
2019-03-15T02:01:18.292Z,40
2019-03-15T02:01:44.299Z,40
2019-03-15T02:02:10.300Z,40
2019-03-15T02:02:36.290Z,40
2019-03-15T02:03:02.302Z,40
2019-03-15T02:03:28.290Z,40
2019-03-15T02:03:54.288Z,40
2019-03-15T02:04:20.325Z,40
2019-03-15T02:04:46.358Z,40
2019-03-15T02:05:12.303Z,40
2019-03-15T02:05:38.306Z,40
2019-03-15T02:06:04.294Z,40
2019-03-15T02:06:30.306Z,40
2019-03-15T02:06:56.296Z,40
2019-03-15T02:07:22.314Z,40
2019-03-15T02:07:48.294Z,40
2019-03-15T02:08:14.302Z,40
2019-03-15T02:08:40.318Z,40
2019-03-15T02:09:06.314Z,40
2019-03-15T02:09:32.313Z,40
2019-03-15T02:09:58.298Z,40
2019-03-15T02:10:24.298Z,40
2019-03-15T02:10:50.301Z,40
2019-03-15T02:11:16.735Z,40
2019-03-15T02:11:42.316Z,40
2019-03-15T02:12:08.316Z,40
2019-03-15T02:12:34.372Z,40
2019-03-15T02:13:00.316Z,40
2019-03-15T02:13:26.305Z,40
2019-03-15T02:13:52.596Z,40
2019-03-15T02:14:18.300Z,40
2019-03-15T02:14:44.304Z,40
2019-03-15T02:15:10.321Z,40
2019-03-15T02:15:36.416Z,40
2019-03-15T02:16:02.320Z,40
2019-03-15T02:16:28.320Z,40
2019-03-15T02:16:54.311Z,40
2019-03-15T02:17:20.321Z,40
2019-03-15T02:17:46.309Z,40
2019-03-15T02:18:12.325Z,40
2019-03-15T02:18:38.317Z,40
2019-03-15T02:19:04.317Z,40
2019-03-15T02:19:30.383Z,40
2019-03-15T02:19:56.552Z,40
2019-03-15T02:20:22.321Z,40
2019-03-15T02:20:48.324Z,40
2019-03-15T02:21:14.310Z,40
2019-03-15T02:21:40.314Z,40
2019-03-15T02:22:06.698Z,40
2019-03-15T02:22:32.331Z,40
2019-03-15T02:22:58.367Z,40
2019-03-15T02:23:24.320Z,40
2019-03-15T02:23:50.330Z,40
2019-03-15T02:24:16.315Z,41
2019-03-15T02:24:42.334Z,40
2019-03-15T02:25:08.320Z,40
2019-03-15T02:25:34.320Z,40
2019-03-15T02:26:00.338Z,40
2019-03-15T02:26:26.324Z,41
2019-03-15T02:26:52.336Z,41
2019-03-15T02:27:18.326Z,40
2019-03-15T02:27:44.323Z,40
2019-03-15T02:28:10.328Z,41
2019-03-15T02:28:36.329Z,41
2019-03-15T02:29:02.339Z,41
2019-03-15T02:29:28.576Z,41
2019-03-15T02:29:54.328Z,41
2019-03-15T02:30:20.340Z,41
2019-03-15T02:30:46.337Z,41
2019-03-15T02:31:12.344Z,41
2019-03-15T02:31:38.328Z,41
2019-03-15T02:32:04.338Z,41
2019-03-15T02:32:30.412Z,41
2019-03-15T02:32:56.345Z,41
2019-03-15T02:33:22.344Z,41
2019-03-15T02:33:48.330Z,41
2019-03-15T02:34:14.330Z,41
2019-03-15T02:34:40.333Z,41
2019-03-15T02:35:06.342Z,41
2019-03-15T02:35:32.414Z,41
2019-03-15T02:35:58.348Z,41
2019-03-15T02:36:24.334Z,41
2019-03-15T02:36:50.348Z,41
2019-03-15T02:37:16.338Z,41
2019-03-15T02:37:42.351Z,41
2019-03-15T02:38:08.334Z,41
2019-03-15T02:38:34.340Z,41
2019-03-15T02:39:00.354Z,41
2019-03-15T02:39:26.354Z,41
2019-03-15T02:39:52.354Z,41
2019-03-15T02:40:18.358Z,41
2019-03-15T02:40:44.343Z,41
2019-03-15T02:41:10.356Z,41
2019-03-15T02:41:36.345Z,41
2019-03-15T02:42:02.489Z,41
2019-03-15T02:42:28.390Z,41
2019-03-15T02:42:54.342Z,41
2019-03-15T02:43:20.357Z,42
2019-03-15T02:43:46.344Z,42
2019-03-15T02:44:12.360Z,42
2019-03-15T02:44:38.346Z,42
2019-03-15T02:45:04.345Z,42
2019-03-15T02:45:30.362Z,42
2019-03-15T02:45:56.430Z,42
2019-03-15T02:46:22.365Z,42
2019-03-15T02:46:48.369Z,42
2019-03-15T02:47:14.348Z,42
2019-03-15T02:47:40.366Z,42
2019-03-15T02:48:06.353Z,42
2019-03-15T02:48:32.368Z,42
2019-03-15T02:48:58.459Z,42
2019-03-15T02:49:24.362Z,42
2019-03-15T02:49:50.370Z,42
2019-03-15T02:50:16.438Z,42
2019-03-15T02:50:42.370Z,42
2019-03-15T02:51:08.374Z,43
2019-03-15T02:51:34.365Z,42
2019-03-15T02:52:00.354Z,42
2019-03-15T02:52:26.354Z,42
2019-03-15T02:52:52.374Z,42
2019-03-15T02:53:18.374Z,42
2019-03-15T02:53:44.361Z,42
2019-03-15T02:54:10.373Z,42
2019-03-15T02:54:36.362Z,42
2019-03-15T02:55:02.380Z,42
2019-03-15T02:55:28.376Z,42
2019-03-15T02:55:54.359Z,43
2019-03-15T02:56:20.385Z,42
2019-03-15T02:56:46.378Z,42
2019-03-15T02:57:12.377Z,42
2019-03-15T02:57:38.379Z,43
2019-03-15T02:58:04.424Z,42
2019-03-15T02:58:30.378Z,42
2019-03-15T02:58:56.367Z,42
2019-03-15T02:59:22.384Z,42
2019-03-15T02:59:48.368Z,42
2019-03-15T03:00:14.378Z,42
2019-03-15T03:00:40.385Z,42
2019-03-15T03:01:06.391Z,42
2019-03-15T03:01:32.615Z,42
2019-03-15T03:01:58.383Z,42
2019-03-15T03:02:24.370Z,43
2019-03-15T03:02:50.372Z,42
2019-03-15T03:03:16.374Z,43
2019-03-15T03:03:42.386Z,43
2019-03-15T03:04:08.454Z,43
2019-03-15T03:04:34.651Z,43
2019-03-15T03:05:00.390Z,43
2019-03-15T03:05:26.379Z,43
2019-03-15T03:05:52.394Z,43
2019-03-15T03:06:18.376Z,43
2019-03-15T03:06:44.370Z,43
2019-03-15T03:07:10.402Z,43
2019-03-15T03:07:36.451Z,42
2019-03-15T03:08:02.392Z,43
2019-03-15T03:08:28.393Z,43
2019-03-15T03:08:54.379Z,43
2019-03-15T03:09:20.395Z,43
2019-03-15T03:09:46.385Z,43
2019-03-15T03:10:12.397Z,43
2019-03-15T03:10:38.387Z,44
2019-03-15T03:11:04.391Z,43
2019-03-15T03:11:30.461Z,43
2019-03-15T03:11:56.400Z,43
2019-03-15T03:12:22.401Z,43
2019-03-15T03:12:48.384Z,43
2019-03-15T03:13:14.389Z,43
2019-03-15T03:13:40.386Z,43
2019-03-15T03:14:06.399Z,43
2019-03-15T03:14:32.467Z,43
2019-03-15T03:14:58.408Z,43
2019-03-15T03:15:24.394Z,43
2019-03-15T03:15:50.407Z,43
2019-03-15T03:16:16.387Z,43
2019-03-15T03:16:42.388Z,43
2019-03-15T03:17:08.400Z,43
2019-03-15T03:17:34.464Z,44
2019-03-15T03:18:00.406Z,44
2019-03-15T03:18:26.410Z,44
2019-03-15T03:18:52.412Z,43
2019-03-15T03:19:18.411Z,44
2019-03-15T03:19:44.393Z,43
2019-03-15T03:20:10.410Z,44
2019-03-15T03:20:36.394Z,44
2019-03-15T03:21:02.395Z,44
2019-03-15T03:21:28.414Z,44
2019-03-15T03:21:54.467Z,44
2019-03-15T03:22:20.413Z,44
2019-03-15T03:22:46.399Z,44
2019-03-15T03:23:12.419Z,44
2019-03-15T03:23:38.406Z,45
2019-03-15T03:24:04.406Z,44
2019-03-15T03:24:30.418Z,44
2019-03-15T03:24:56.419Z,44
2019-03-15T03:25:22.419Z,44
2019-03-15T03:25:48.426Z,44
2019-03-15T03:26:14.404Z,44
2019-03-15T03:26:40.405Z,44
2019-03-15T03:27:06.407Z,44
2019-03-15T03:27:32.413Z,44
2019-03-15T03:27:58.417Z,44
2019-03-15T03:28:24.411Z,44
2019-03-15T03:28:50.486Z,44
2019-03-15T03:29:16.426Z,44
2019-03-15T03:29:42.425Z,44
2019-03-15T03:30:08.423Z,44
2019-03-15T03:30:34.416Z,44
2019-03-15T03:31:00.409Z,44
2019-03-15T03:31:26.414Z,44
2019-03-15T03:31:52.420Z,44
2019-03-15T03:32:18.496Z,44
2019-03-15T03:32:44.414Z,45
2019-03-15T03:33:10.433Z,44
2019-03-15T03:33:36.415Z,44
2019-03-15T03:34:02.436Z,44
2019-03-15T03:34:28.418Z,45
2019-03-15T03:34:54.427Z,45
2019-03-15T03:35:20.496Z,45
2019-03-15T03:35:46.432Z,45
2019-03-15T03:36:12.433Z,45
2019-03-15T03:36:38.419Z,45
2019-03-15T03:37:04.420Z,45
2019-03-15T03:37:30.421Z,45
2019-03-15T03:37:56.463Z,45
2019-03-15T03:38:22.435Z,45
2019-03-15T03:38:48.440Z,45
2019-03-15T03:39:14.427Z,45
2019-03-15T03:39:40.440Z,45
2019-03-15T03:40:06.422Z,45
2019-03-15T03:40:32.438Z,45
2019-03-15T03:40:58.434Z,45
2019-03-15T03:41:24.478Z,45
2019-03-15T03:41:50.442Z,45
2019-03-15T03:42:16.515Z,45
2019-03-15T03:42:42.445Z,45
2019-03-15T03:43:08.444Z,44
2019-03-15T03:43:34.432Z,45
2019-03-15T03:44:00.432Z,45
2019-03-15T03:44:26.428Z,45
2019-03-15T03:44:52.462Z,45
2019-03-15T03:45:18.446Z,45
2019-03-15T03:45:44.431Z,45
2019-03-15T03:46:10.447Z,45
2019-03-15T03:46:36.434Z,45
2019-03-15T03:47:02.452Z,45
2019-03-15T03:47:28.434Z,45
2019-03-15T03:47:54.442Z,45
2019-03-15T03:48:20.454Z,45
2019-03-15T03:48:46.451Z,45
2019-03-15T03:49:12.454Z,45
2019-03-15T03:49:38.453Z,45
2019-03-15T03:50:04.449Z,45
2019-03-15T03:50:30.440Z,45
2019-03-15T03:50:56.440Z,45
2019-03-15T03:51:22.455Z,45
2019-03-15T03:51:48.468Z,45
2019-03-15T03:52:14.508Z,45
2019-03-15T03:52:40.457Z,45
2019-03-15T03:53:06.461Z,45
2019-03-15T03:53:32.458Z,45
2019-03-15T03:53:58.443Z,45
2019-03-15T03:54:24.442Z,45
2019-03-15T03:54:50.452Z,44
2019-03-15T03:55:16.531Z,45
2019-03-15T03:55:42.457Z,45
2019-03-15T03:56:08.462Z,45
2019-03-15T03:56:34.451Z,45
2019-03-15T03:57:00.454Z,45
2019-03-15T03:57:26.447Z,45
2019-03-15T03:57:52.469Z,45
2019-03-15T03:58:18.467Z,45
2019-03-15T03:58:44.457Z,45
2019-03-15T03:59:10.463Z,45
2019-03-15T03:59:36.449Z,45
2019-03-15T04:00:02.472Z,45
2019-03-15T04:00:28.450Z,45
2019-03-15T04:00:54.448Z,45
2019-03-15T04:01:20.472Z,45
2019-03-15T04:01:46.756Z,45
2019-03-15T04:02:12.470Z,45
2019-03-15T04:02:38.473Z,45
2019-03-15T04:03:04.460Z,45
2019-03-15T04:03:30.455Z,45
2019-03-15T04:03:56.455Z,45
2019-03-15T04:04:22.467Z,45
2019-03-15T04:04:48.544Z,45
2019-03-15T04:05:14.559Z,45
2019-03-15T04:05:40.474Z,45
2019-03-15T04:06:06.462Z,45
2019-03-15T04:06:32.484Z,45
2019-03-15T04:06:58.460Z,45
2019-03-15T04:07:24.466Z,45
2019-03-15T04:07:50.489Z,45
2019-03-15T04:08:16.469Z,45
2019-03-15T04:08:42.541Z,45
2019-03-15T04:09:08.548Z,46
2019-03-15T04:09:34.464Z,45
2019-03-15T04:10:00.479Z,45
2019-03-15T04:10:26.467Z,45
2019-03-15T04:10:52.488Z,45
2019-03-15T04:11:18.468Z,45
2019-03-15T04:11:44.478Z,45
2019-03-15T04:12:10.487Z,45
2019-03-15T04:12:36.508Z,45
2019-03-15T04:13:02.485Z,45
2019-03-15T04:13:28.472Z,45
2019-03-15T04:13:54.470Z,45
2019-03-15T04:14:20.472Z,45
2019-03-15T04:14:46.486Z,45
2019-03-15T04:15:12.487Z,45
2019-03-15T04:15:38.494Z,45
2019-03-15T04:16:04.475Z,45
2019-03-15T04:16:30.490Z,45
2019-03-15T04:16:56.477Z,45
2019-03-15T04:17:22.497Z,45
2019-03-15T04:17:48.477Z,45
2019-03-15T04:18:14.486Z,45
2019-03-15T04:18:40.561Z,45
2019-03-15T04:19:06.496Z,45
2019-03-15T04:19:32.492Z,45
2019-03-15T04:19:58.540Z,45
2019-03-15T04:20:24.482Z,45
2019-03-15T04:20:50.525Z,45
2019-03-15T04:21:16.509Z,45
2019-03-15T04:21:42.501Z,45
2019-03-15T04:22:08.502Z,45
2019-03-15T04:22:34.565Z,45
2019-03-15T04:23:00.497Z,45
2019-03-15T04:23:26.484Z,45
2019-03-15T04:23:52.501Z,45
2019-03-15T04:24:18.484Z,45
2019-03-15T04:24:44.484Z,45
2019-03-15T04:25:10.504Z,45
2019-03-15T04:25:36.516Z,45
2019-03-15T04:26:02.502Z,45
2019-03-15T04:26:28.508Z,45
2019-03-15T04:26:54.494Z,45
2019-03-15T04:27:20.537Z,45
2019-03-15T04:27:46.487Z,45
2019-03-15T04:28:12.503Z,45
2019-03-15T04:28:38.499Z,46
2019-03-15T04:29:04.491Z,45
2019-03-15T04:29:30.656Z,45
2019-03-15T04:29:56.508Z,45
2019-03-15T04:30:22.544Z,45
2019-03-15T04:30:48.507Z,45
2019-03-15T04:31:14.492Z,45
2019-03-15T04:31:40.502Z,45
2019-03-15T04:32:06.494Z,45
2019-03-15T04:32:32.503Z,45
2019-03-15T04:32:58.515Z,45
2019-03-15T04:33:24.574Z,45
2019-03-15T04:33:50.516Z,45
2019-03-15T04:34:16.496Z,45
2019-03-15T04:34:42.515Z,45
2019-03-15T04:35:08.505Z,45
2019-03-15T04:35:34.512Z,45
2019-03-15T04:36:00.522Z,45
2019-03-15T04:36:26.518Z,45
2019-03-15T04:36:52.518Z,45
2019-03-15T04:37:18.520Z,45
2019-03-15T04:37:44.502Z,45
2019-03-15T04:38:10.519Z,46
2019-03-15T04:38:36.517Z,45
2019-03-15T04:39:02.504Z,45
2019-03-15T04:39:28.517Z,46
2019-03-15T04:39:54.582Z,46
2019-03-15T04:40:20.526Z,45
2019-03-15T04:40:46.510Z,45
2019-03-15T04:41:12.525Z,45
2019-03-15T04:41:38.506Z,46
2019-03-15T04:42:04.508Z,46
2019-03-15T04:42:30.522Z,45
2019-03-15T04:42:56.591Z,45
2019-03-15T04:43:22.526Z,45
2019-03-15T04:43:48.528Z,45
2019-03-15T04:44:14.519Z,46
2019-03-15T04:44:40.521Z,45
2019-03-15T04:45:06.515Z,46
2019-03-15T04:45:32.529Z,46
2019-03-15T04:45:58.596Z,46
2019-03-15T04:46:24.517Z,46
2019-03-15T04:46:50.531Z,46
2019-03-15T04:47:16.517Z,46
2019-03-15T04:47:42.533Z,46
2019-03-15T04:48:08.517Z,46
2019-03-15T04:48:34.548Z,46
2019-03-15T04:49:00.681Z,46
2019-03-15T04:49:26.534Z,46
2019-03-15T04:49:52.539Z,46
2019-03-15T04:50:18.540Z,46
2019-03-15T04:50:44.528Z,46
2019-03-15T04:51:10.546Z,46
2019-03-15T04:51:36.526Z,46
2019-03-15T04:52:02.533Z,46
2019-03-15T04:52:28.535Z,46
2019-03-15T04:52:54.595Z,46
2019-03-15T04:53:20.541Z,46
2019-03-15T04:53:46.533Z,46
2019-03-15T04:54:12.542Z,46
2019-03-15T04:54:38.527Z,46
2019-03-15T04:55:04.532Z,46
2019-03-15T04:55:30.528Z,46
2019-03-15T04:55:56.548Z,46
2019-03-15T04:56:22.612Z,46
2019-03-15T04:56:48.548Z,46
2019-03-15T04:57:14.533Z,46
2019-03-15T04:57:40.548Z,46
2019-03-15T04:58:06.723Z,46
2019-03-15T04:58:32.551Z,46
2019-03-15T04:58:58.534Z,45
2019-03-15T04:59:24.535Z,47
2019-03-15T04:59:50.535Z,46
2019-03-15T05:00:16.542Z,46
2019-03-15T05:00:42.553Z,46
2019-03-15T05:01:08.619Z,46
2019-03-15T05:01:34.966Z,46
2019-03-15T05:02:00.554Z,46
2019-03-15T05:02:26.536Z,46
2019-03-15T05:02:52.906Z,46
2019-03-15T05:03:18.542Z,46
2019-03-15T05:03:44.543Z,46
2019-03-15T05:04:10.548Z,46
2019-03-15T05:04:36.572Z,46
2019-03-15T05:05:02.559Z,46
2019-03-15T05:05:28.949Z,46
2019-03-15T05:05:54.545Z,46
2019-03-15T05:06:20.560Z,46
2019-03-15T05:06:46.545Z,46
2019-03-15T05:07:12.560Z,46
2019-03-15T05:07:38.547Z,46
2019-03-15T05:08:04.551Z,46
2019-03-15T05:08:30.563Z,46
2019-03-15T05:08:56.562Z,46
2019-03-15T05:09:22.563Z,46
2019-03-15T05:09:48.548Z,46
2019-03-15T05:10:14.549Z,46
2019-03-15T05:10:40.549Z,45
2019-03-15T05:11:06.566Z,46
2019-03-15T05:11:32.632Z,46
2019-03-15T05:11:58.568Z,46
2019-03-15T05:12:24.553Z,46
2019-03-15T05:12:50.569Z,46
2019-03-15T05:13:16.564Z,46
2019-03-15T05:13:42.571Z,46
2019-03-15T05:14:08.558Z,46
2019-03-15T05:14:34.897Z,46
2019-03-15T05:15:00.634Z,46
2019-03-15T05:15:26.572Z,46
2019-03-15T05:15:52.573Z,46
2019-03-15T05:16:18.573Z,46
2019-03-15T05:16:44.558Z,46
2019-03-15T05:17:10.578Z,46
2019-03-15T05:17:36.564Z,46
2019-03-15T05:18:02.567Z,46
2019-03-15T05:18:28.573Z,46
2019-03-15T05:18:54.629Z,46
2019-03-15T05:19:20.578Z,47
2019-03-15T05:19:46.564Z,46
2019-03-15T05:20:12.577Z,46
2019-03-15T05:20:38.565Z,46
2019-03-15T05:21:04.567Z,46
2019-03-15T05:21:30.572Z,46
2019-03-15T05:21:56.646Z,46
2019-03-15T05:22:22.582Z,45
2019-03-15T05:22:48.580Z,45
2019-03-15T05:23:14.568Z,46
2019-03-15T05:23:40.584Z,46
2019-03-15T05:24:06.878Z,46
2019-03-15T05:24:32.850Z,46
2019-03-15T05:24:58.585Z,46
2019-03-15T05:25:24.580Z,46
2019-03-15T05:25:50.650Z,46
2019-03-15T05:26:16.649Z,46
2019-03-15T05:26:42.591Z,46
2019-03-15T05:27:08.588Z,46
2019-03-15T05:27:34.578Z,47
2019-03-15T05:28:00.587Z,46
2019-03-15T05:28:26.581Z,46
2019-03-15T05:28:52.576Z,46
2019-03-15T05:29:18.596Z,46
2019-03-15T05:29:44.580Z,46
2019-03-15T05:30:10.596Z,46
2019-03-15T05:30:36.580Z,46
2019-03-15T05:31:02.611Z,46
2019-03-15T05:31:28.577Z,46
2019-03-15T05:31:54.584Z,46
2019-03-15T05:32:20.598Z,46
2019-03-15T05:32:46.660Z,46
2019-03-15T05:33:12.597Z,46
2019-03-15T05:33:38.599Z,46
2019-03-15T05:34:04.581Z,46
2019-03-15T05:34:30.597Z,46
2019-03-15T05:34:56.585Z,46
2019-03-15T05:35:22.601Z,46
2019-03-15T05:35:48.591Z,46
2019-03-15T05:36:14.596Z,46
2019-03-15T05:36:40.603Z,46
2019-03-15T05:37:06.601Z,46
2019-03-15T05:37:32.608Z,46
2019-03-15T05:37:58.612Z,46
2019-03-15T05:38:24.594Z,46
2019-03-15T05:38:50.631Z,47
2019-03-15T05:39:16.588Z,46
2019-03-15T05:39:42.599Z,47
2019-03-15T05:40:08.607Z,47
2019-03-15T05:40:34.817Z,47
2019-03-15T05:41:00.616Z,47
2019-03-15T05:41:26.595Z,47
2019-03-15T05:41:52.613Z,47
2019-03-15T05:42:18.598Z,47
2019-03-15T05:42:44.600Z,47
2019-03-15T05:43:10.609Z,47
2019-03-15T05:43:36.609Z,47
2019-03-15T05:44:02.680Z,47
2019-03-15T05:44:28.613Z,47
2019-03-15T05:44:54.598Z,47
2019-03-15T05:45:20.613Z,47
2019-03-15T05:45:46.603Z,47
2019-03-15T05:46:12.619Z,47
2019-03-15T05:46:38.614Z,46
2019-03-15T05:47:04.611Z,47
2019-03-15T05:47:30.682Z,47
2019-03-15T05:47:56.631Z,47
2019-03-15T05:48:22.621Z,47
2019-03-15T05:48:48.602Z,47
2019-03-15T05:49:14.601Z,47
2019-03-15T05:49:40.605Z,47
2019-03-15T05:50:06.604Z,47
2019-03-15T05:50:32.623Z,47
2019-03-15T05:50:58.631Z,47
2019-03-15T05:51:24.619Z,47
2019-03-15T05:51:50.624Z,47
2019-03-15T05:52:16.609Z,47
2019-03-15T05:52:42.623Z,47
2019-03-15T05:53:08.609Z,47
2019-03-15T05:53:34.608Z,47
2019-03-15T05:54:00.621Z,47
2019-03-15T05:54:26.628Z,47
2019-03-15T05:54:52.635Z,47
2019-03-15T05:55:18.631Z,47
2019-03-15T05:55:44.618Z,47
2019-03-15T05:56:10.628Z,47
2019-03-15T05:56:36.617Z,47
2019-03-15T05:57:02.624Z,47
2019-03-15T05:57:28.633Z,47
2019-03-15T05:57:54.613Z,47
2019-03-15T05:58:20.633Z,47
2019-03-15T05:58:46.617Z,47
2019-03-15T05:59:12.633Z,47
2019-03-15T05:59:38.614Z,47
2019-03-15T06:00:04.622Z,47
2019-03-15T06:00:30.631Z,47
2019-03-15T06:00:56.637Z,47
2019-03-15T06:01:22.699Z,47
2019-03-15T06:01:48.639Z,47
2019-03-15T06:02:14.628Z,47
2019-03-15T06:02:40.744Z,47
2019-03-15T06:03:06.625Z,47
2019-03-15T06:03:33.089Z,47
2019-03-15T06:03:58.653Z,47
2019-03-15T06:04:24.623Z,47
2019-03-15T06:04:50.841Z,47
2019-03-15T06:05:16.968Z,47
2019-03-15T06:05:42.799Z,47
2019-03-15T06:06:08.646Z,47
2019-03-15T06:06:34.878Z,47
2019-03-15T06:07:01.199Z,47
2019-03-15T06:07:26.627Z,47
2019-03-15T06:07:52.652Z,47
2019-03-15T06:08:18.642Z,47
2019-03-15T06:08:44.706Z,47
2019-03-15T06:09:10.642Z,47
2019-03-15T06:09:36.638Z,47
2019-03-15T06:10:02.649Z,47
2019-03-15T06:10:28.634Z,47
2019-03-15T06:10:54.636Z,47